Terminal Aerodrome Forecast
Issued by NWS

Home | Current Version | Previous Version | Graphics & Text | Print | Product List | Glossary On
Versions: 1 2 3 4 5 6 7 8 9 10 11 12 13 14 15 16 17 18 19 20 21 22 23 24 25 26 27 28 29 30 31 32 33 34
000
FTUS43 KLOT 301400 AAA
TAFORD
TAF AMD
KORD 301407Z 3014/3118 21006KT P6SM SCT120 BKN250
     FM301900 24007KT P6SM SCT040 BKN100
     FM302300 26005KT P6SM SCT035 OVC060
     FM310400 30010KT P6SM VCSH BKN012 OVC025
     FM310900 33014G24KT P6SM SCT012 BKN035
     FM311400 35024G35KT P6SM SCT035=

USA.gov is the U.S. government's official web portal to all federal, state and local government web resources and services.